sensor_id;sensor_type;location;lat;lon;timestamp;temperature;humidity
26262;DHT22;13988;52.446;13.280;2023-08-01T00:00:12;17.70;99.90
26262;DHT22;13988;52.446;13.280;2023-08-01T00:02:38;17.60;99.90
26262;DHT22;13988;52.446;13.280;2023-08-01T00:05:04;17.60;99.90
26262;DHT22;13988;52.446;13.280;2023-08-01T00:07:30;17.60;99.90
26262;DHT22;13988;52.446;13.280;2023-08-01T00:09:55;17.60;99.90
26262;DHT22;13988;52.446;13.280;2023-08-01T00:12:23;17.50;99.90
26262;DHT22;13988;52.446;13.280;2023-08-01T00:14:49;17.50;99.90
26262;DHT22;13988;52.446;13.280;2023-08-01T00:17:14;17.50;99.90
26262;DHT22;13988;52.446;13.280;2023-08-01T00:19:40;17.50;99.90
26262;DHT22;13988;52.446;13.280;2023-08-01T00:22:06;17.40;99.90
26262;DHT22;13988;52.446;13.280;2023-08-01T00:24:31;17.30;99.90
26262;DHT22;13988;52.446;13.280;2023-08-01T00:26:57;17.20;99.90
26262;DHT22;13988;52.446;13.280;2023-08-01T00:29:23;17.20;99.90
26262;DHT22;13988;52.446;13.280;2023-08-01T00:31:50;17.10;99.90
26262;DHT22;13988;52.446;13.280;2023-08-01T00:34:15;17.00;99.90
26262;DHT22;13988;52.446;13.280;2023-08-01T00:36:41;17.00;99.90
26262;DHT22;13988;52.446;13.280;2023-08-01T00:39:06;16.90;99.90
26262;DHT22;13988;52.446;13.280;2023-08-01T00:41:32;16.90;99.90
26262;DHT22;13988;52.446;13.280;2023-08-01T00:43:58;16.80;99.90
26262;DHT22;13988;52.446;13.280;2023-08-01T00:46:24;16.80;99.90
26262;DHT22;13988;52.446;13.280;2023-08-01T00:48:50;16.80;99.90
26262;DHT22;13988;52.446;13.280;2023-08-01T00:51:16;16.80;99.90
26262;DHT22;13988;52.446;13.280;2023-08-01T00:53:43;16.80;99.90
26262;DHT22;13988;52.446;13.280;2023-08-01T00:56:11;16.80;99.90
26262;DHT22;13988;52.446;13.280;2023-08-01T00:58:36;16.70;99.90
26262;DHT22;13988;52.446;13.280;2023-08-01T01:01:02;16.70;99.90
26262;DHT22;13988;52.446;13.280;2023-08-01T01:03:29;16.80;99.90
26262;DHT22;13988;52.446;13.280;2023-08-01T01:06:11;16.80;99.90
26262;DHT22;13988;52.446;13.280;2023-08-01T01:08:41;16.70;99.90
26262;DHT22;13988;52.446;13.280;2023-08-01T01:11:07;16.80;99.90
26262;DHT22;13988;52.446;13.280;2023-08-01T01:13:33;16.80;99.90
26262;DHT22;13988;52.446;13.280;2023-08-01T01:15:59;16.80;99.90
26262;DHT22;13988;52.446;13.280;2023-08-01T01:18:25;16.80;99.90
26262;DHT22;13988;52.446;13.280;2023-08-01T01:20:50;16.80;99.90
26262;DHT22;13988;52.446;13.280;2023-08-01T01:23:16;16.80;99.90
26262;DHT22;13988;52.446;13.280;2023-08-01T01:25:43;16.80;99.90
26262;DHT22;13988;52.446;13.280;2023-08-01T01:28:10;16.80;99.90
26262;DHT22;13988;52.446;13.280;2023-08-01T01:30:36;16.80;99.90
26262;DHT22;13988;52.446;13.280;2023-08-01T01:33:03;16.80;99.90
26262;DHT22;13988;52.446;13.280;2023-08-01T01:35:29;16.80;99.90
26262;DHT22;13988;52.446;13.280;2023-08-01T01:37:55;16.80;99.90
26262;DHT22;13988;52.446;13.280;2023-08-01T01:40:21;16.80;99.90
26262;DHT22;13988;52.446;13.280;2023-08-01T01:42:46;16.70;99.90
26262;DHT22;13988;52.446;13.280;2023-08-01T01:45:13;16.70;99.90
26262;DHT22;13988;52.446;13.280;2023-08-01T01:47:39;16.80;99.90
26262;DHT22;13988;52.446;13.280;2023-08-01T01:50:05;16.80;99.90
26262;DHT22;13988;52.446;13.280;2023-08-01T01:52:31;16.80;99.90
26262;DHT22;13988;52.446;13.280;2023-08-01T01:54:58;16.70;99.90
26262;DHT22;13988;52.446;13.280;2023-08-01T01:57:24;16.70;99.90
26262;DHT22;13988;52.446;13.280;2023-08-01T01:59:49;16.80;99.90
26262;DHT22;13988;52.446;13.280;2023-08-01T02:02:15;16.80;99.90
26262;DHT22;13988;52.446;13.280;2023-08-01T02:04:40;16.80;99.90
26262;DHT22;13988;52.446;13.280;2023-08-01T02:07:06;16.80;99.90
26262;DHT22;13988;52.446;13.280;2023-08-01T02:09:32;16.80;99.90
26262;DHT22;13988;52.446;13.280;2023-08-01T02:11:57;16.70;99.90
26262;DHT22;13988;52.446;13.280;2023-08-01T02:14:23;16.70;99.90
26262;DHT22;13988;52.446;13.280;2023-08-01T02:16:49;16.70;99.90
26262;DHT22;13988;52.446;13.280;2023-08-01T02:19:14;16.70;99.90
26262;DHT22;13988;52.446;13.280;2023-08-01T02:21:40;16.70;99.90
26262;DHT22;13988;52.446;13.280;2023-08-01T02:24:05;16.70;99.90
26262;DHT22;13988;52.446;13.280;2023-08-01T02:26:31;16.70;99.90
26262;DHT22;13988;52.446;13.280;2023-08-01T02:28:57;16.70;99.90
26262;DHT22;13988;52.446;13.280;2023-08-01T02:31:22;16.70;99.90
26262;DHT22;13988;52.446;13.280;2023-08-01T02:33:48;16.70;99.90
26262;DHT22;13988;52.446;13.280;2023-08-01T02:36:13;16.70;99.90
26262;DHT22;13988;52.446;13.280;2023-08-01T02:38:39;16.70;99.90
26262;DHT22;13988;52.446;13.280;2023-08-01T02:41:05;16.70;99.90
26262;DHT22;13988;52.446;13.280;2023-08-01T02:43:30;16.70;99.90
26262;DHT22;13988;52.446;13.280;2023-08-01T02:45:56;16.70;99.90
26262;DHT22;13988;52.446;13.280;2023-08-01T02:48:21;16.70;99.90
26262;DHT22;13988;52.446;13.280;2023-08-01T02:50:47;16.70;99.90
26262;DHT22;13988;52.446;13.280;2023-08-01T02:53:13;16.70;99.90
26262;DHT22;13988;52.446;13.280;2023-08-01T02:55:38;16.70;99.90
26262;DHT22;13988;52.446;13.280;2023-08-01T02:58:04;16.70;99.90
26262;DHT22;13988;52.446;13.280;2023-08-01T03:00:30;16.70;99.90
26262;DHT22;13988;52.446;13.280;2023-08-01T03:02:57;16.70;99.90
26262;DHT22;13988;52.446;13.280;2023-08-01T03:05:23;16.70;99.90
26262;DHT22;13988;52.446;13.280;2023-08-01T03:07:48;16.70;99.90
26262;DHT22;13988;52.446;13.280;2023-08-01T03:10:14;16.70;99.90
26262;DHT22;13988;52.446;13.280;2023-08-01T03:12:40;16.70;99.90
26262;DHT22;13988;52.446;13.280;2023-08-01T03:15:06;16.70;99.90
26262;DHT22;13988;52.446;13.280;2023-08-01T03:17:34;16.70;99.90
26262;DHT22;13988;52.446;13.280;2023-08-01T03:19:59;16.70;99.90
26262;DHT22;13988;52.446;13.280;2023-08-01T03:22:25;16.70;99.90
26262;DHT22;13988;52.446;13.280;2023-08-01T03:24:50;16.60;99.90
26262;DHT22;13988;52.446;13.280;2023-08-01T03:27:16;16.60;99.90
26262;DHT22;13988;52.446;13.280;2023-08-01T03:29:42;16.60;99.90
26262;DHT22;13988;52.446;13.280;2023-08-01T03:32:07;16.60;99.90
26262;DHT22;13988;52.446;13.280;2023-08-01T03:34:33;16.60;99.90
26262;DHT22;13988;52.446;13.280;2023-08-01T03:37:02;16.60;99.90
26262;DHT22;13988;52.446;13.280;2023-08-01T03:39:29;16.60;99.90
26262;DHT22;13988;52.446;13.280;2023-08-01T03:41:54;16.60;99.90
26262;DHT22;13988;52.446;13.280;2023-08-01T03:44:20;16.60;99.90
26262;DHT22;13988;52.446;13.280;2023-08-01T03:46:45;16.60;99.90
26262;DHT22;13988;52.446;13.280;2023-08-01T03:49:12;16.60;99.90
26262;DHT22;13988;52.446;13.280;2023-08-01T03:51:38;16.60;99.90
26262;DHT22;13988;52.446;13.280;2023-08-01T03:54:04;16.60;99.90
26262;DHT22;13988;52.446;13.280;2023-08-01T03:56:30;16.70;99.90
26262;DHT22;13988;52.446;13.280;2023-08-01T03:58:55;16.70;99.90
26262;DHT22;13988;52.446;13.280;2023-08-01T04:01:21;16.70;99.90
26262;DHT22;13988;52.446;13.280;2023-08-01T04:03:46;16.70;99.90
26262;DHT22;13988;52.446;13.280;2023-08-01T04:06:12;16.70;99.90
26262;DHT22;13988;52.446;13.280;2023-08-01T04:08:40;16.70;99.90
26262;DHT22;13988;52.446;13.280;2023-08-01T04:11:06;16.80;99.90
26262;DHT22;13988;52.446;13.280;2023-08-01T04:13:32;16.70;99.90
26262;DHT22;13988;52.446;13.280;2023-08-01T04:15:57;16.80;99.90
26262;DHT22;13988;52.446;13.280;2023-08-01T04:18:23;16.70;99.90
26262;DHT22;13988;52.446;13.280;2023-08-01T04:20:48;16.80;99.90
26262;DHT22;13988;52.446;13.280;2023-08-01T04:23:14;16.80;99.90
26262;DHT22;13988;52.446;13.280;2023-08-01T04:25:41;16.80;99.90
26262;DHT22;13988;52.446;13.280;2023-08-01T04:28:06;16.90;99.90
26262;DHT22;13988;52.446;13.280;2023-08-01T04:30:32;16.90;99.90
26262;DHT22;13988;52.446;13.280;2023-08-01T04:32:58;16.90;99.90
26262;DHT22;13988;52.446;13.280;2023-08-01T04:35:24;16.90;99.90
26262;DHT22;13988;52.446;13.280;2023-08-01T04:37:49;16.90;99.90
26262;DHT22;13988;52.446;13.280;2023-08-01T04:40:15;16.90;99.90
26262;DHT22;13988;52.446;13.280;2023-08-01T04:42:41;16.90;99.90
26262;DHT22;13988;52.446;13.280;2023-08-01T04:45:07;16.90;99.90
26262;DHT22;13988;52.446;13.280;2023-08-01T04:47:32;16.90;99.90
26262;DHT22;13988;52.446;13.280;2023-08-01T04:49:58;16.90;99.90
26262;DHT22;13988;52.446;13.280;2023-08-01T04:52:23;16.90;99.90
26262;DHT22;13988;52.446;13.280;2023-08-01T04:54:49;16.90;99.90
26262;DHT22;13988;52.446;13.280;2023-08-01T04:57:15;17.00;99.90
26262;DHT22;13988;52.446;13.280;2023-08-01T04:59:40;17.00;99.90
26262;DHT22;13988;52.446;13.280;2023-08-01T05:02:06;17.00;99.90
26262;DHT22;13988;52.446;13.280;2023-08-01T05:04:31;17.00;99.90
26262;DHT22;13988;52.446;13.280;2023-08-01T05:06:57;16.90;99.90
26262;DHT22;13988;52.446;13.280;2023-08-01T05:09:23;17.00;99.90
26262;DHT22;13988;52.446;13.280;2023-08-01T05:11:48;17.00;99.90
26262;DHT22;13988;52.446;13.280;2023-08-01T05:14:14;17.00;99.90
26262;DHT22;13988;52.446;13.280;2023-08-01T05:16:39;17.00;99.90
26262;DHT22;13988;52.446;13.280;2023-08-01T05:19:05;17.00;99.90
26262;DHT22;13988;52.446;13.280;2023-08-01T05:21:31;17.10;99.90
26262;DHT22;13988;52.446;13.280;2023-08-01T05:23:56;17.10;99.90
26262;DHT22;13988;52.446;13.280;2023-08-01T05:26:22;17.10;99.90
26262;DHT22;13988;52.446;13.280;2023-08-01T05:28:47;17.20;99.90
26262;DHT22;13988;52.446;13.280;2023-08-01T05:31:13;17.20;99.90
26262;DHT22;13988;52.446;13.280;2023-08-01T05:33:39;17.20;99.90
26262;DHT22;13988;52.446;13.280;2023-08-01T05:36:04;17.20;99.90
26262;DHT22;13988;52.446;13.280;2023-08-01T05:38:30;17.20;99.90
26262;DHT22;13988;52.446;13.280;2023-08-01T05:40:56;17.20;99.90
26262;DHT22;13988;52.446;13.280;2023-08-01T05:43:21;17.20;99.90
26262;DHT22;13988;52.446;13.280;2023-08-01T05:45:47;17.20;99.90
26262;DHT22;13988;52.446;13.280;2023-08-01T05:48:13;17.20;99.90
26262;DHT22;13988;52.446;13.280;2023-08-01T05:50:39;17.20;99.90
26262;DHT22;13988;52.446;13.280;2023-08-01T05:53:04;17.30;99.90
26262;DHT22;13988;52.446;13.280;2023-08-01T05:55:30;17.30;99.90
26262;DHT22;13988;52.446;13.280;2023-08-01T05:57:56;17.30;99.90
26262;DHT22;13988;52.446;13.280;2023-08-01T06:00:22;17.30;99.90
26262;DHT22;13988;52.446;13.280;2023-08-01T06:02:47;17.30;99.90
26262;DHT22;13988;52.446;13.280;2023-08-01T06:05:13;17.30;99.90
26262;DHT22;13988;52.446;13.280;2023-08-01T06:07:39;17.30;99.90
26262;DHT22;13988;52.446;13.280;2023-08-01T06:10:05;17.30;99.90
26262;DHT22;13988;52.446;13.280;2023-08-01T06:12:30;17.30;99.90
26262;DHT22;13988;52.446;13.280;2023-08-01T06:14:56;17.40;99.90
26262;DHT22;13988;52.446;13.280;2023-08-01T06:17:22;17.40;99.90
26262;DHT22;13988;52.446;13.280;2023-08-01T06:19:47;17.40;99.90
26262;DHT22;13988;52.446;13.280;2023-08-01T06:22:15;17.40;99.90
26262;DHT22;13988;52.446;13.280;2023-08-01T06:24:40;17.40;99.90
26262;DHT22;13988;52.446;13.280;2023-08-01T06:27:06;17.40;99.90
26262;DHT22;13988;52.446;13.280;2023-08-01T06:29:32;17.50;99.90
26262;DHT22;13988;52.446;13.280;2023-08-01T06:31:57;17.40;99.90
26262;DHT22;13988;52.446;13.280;2023-08-01T06:34:23;17.40;99.90
26262;DHT22;13988;52.446;13.280;2023-08-01T06:36:50;17.40;99.90
26262;DHT22;13988;52.446;13.280;2023-08-01T06:39:16;17.40;99.90
26262;DHT22;13988;52.446;13.280;2023-08-01T06:41:41;17.50;99.90
26262;DHT22;13988;52.446;13.280;2023-08-01T06:44:07;17.60;99.90
26262;DHT22;13988;52.446;13.280;2023-08-01T06:46:32;17.60;99.90
26262;DHT22;13988;52.446;13.280;2023-08-01T06:48:58;17.50;99.90
26262;DHT22;13988;52.446;13.280;2023-08-01T06:51:23;17.50;99.90
26262;DHT22;13988;52.446;13.280;2023-08-01T06:53:49;17.50;99.90
26262;DHT22;13988;52.446;13.280;2023-08-01T06:56:15;17.50;99.90
26262;DHT22;13988;52.446;13.280;2023-08-01T06:58:40;17.50;99.90
26262;DHT22;13988;52.446;13.280;2023-08-01T07:01:06;17.60;99.90
26262;DHT22;13988;52.446;13.280;2023-08-01T07:03:31;17.50;99.90
26262;DHT22;13988;52.446;13.280;2023-08-01T07:05:57;17.60;99.90
26262;DHT22;13988;52.446;13.280;2023-08-01T07:08:23;17.60;99.90
26262;DHT22;13988;52.446;13.280;2023-08-01T07:10:49;17.70;99.90
26262;DHT22;13988;52.446;13.280;2023-08-01T07:13:14;17.80;99.90
26262;DHT22;13988;52.446;13.280;2023-08-01T07:15:41;17.90;99.90
26262;DHT22;13988;52.446;13.280;2023-08-01T07:18:07;18.00;99.90
26262;DHT22;13988;52.446;13.280;2023-08-01T07:20:33;18.00;99.90
26262;DHT22;13988;52.446;13.280;2023-08-01T07:22:58;18.10;99.90
26262;DHT22;13988;52.446;13.280;2023-08-01T07:25:24;18.20;99.90
26262;DHT22;13988;52.446;13.280;2023-08-01T07:27:51;18.40;99.90
26262;DHT22;13988;52.446;13.280;2023-08-01T07:30:16;18.40;99.90
26262;DHT22;13988;52.446;13.280;2023-08-01T07:32:42;18.40;99.90
26262;DHT22;13988;52.446;13.280;2023-08-01T07:35:09;18.60;99.90
26262;DHT22;13988;52.446;13.280;2023-08-01T07:37:35;18.80;99.90
26262;DHT22;13988;52.446;13.280;2023-08-01T07:40:04;18.80;99.90
26262;DHT22;13988;52.446;13.280;2023-08-01T07:42:30;18.80;99.90
26262;DHT22;13988;52.446;13.280;2023-08-01T07:44:56;18.90;99.90
26262;DHT22;13988;52.446;13.280;2023-08-01T07:47:22;19.00;99.90
26262;DHT22;13988;52.446;13.280;2023-08-01T07:49:49;19.10;99.90
26262;DHT22;13988;52.446;13.280;2023-08-01T07:52:15;19.00;99.90
26262;DHT22;13988;52.446;13.280;2023-08-01T07:54:40;19.10;99.90
26262;DHT22;13988;52.446;13.280;2023-08-01T07:57:06;19.00;99.90
26262;DHT22;13988;52.446;13.280;2023-08-01T07:59:32;19.00;99.90
26262;DHT22;13988;52.446;13.280;2023-08-01T08:01:57;19.10;99.90
26262;DHT22;13988;52.446;13.280;2023-08-01T08:04:23;19.40;99.90
26262;DHT22;13988;52.446;13.280;2023-08-01T08:06:48;19.70;99.90
26262;DHT22;13988;52.446;13.280;2023-08-01T08:09:14;20.10;99.90
26262;DHT22;13988;52.446;13.280;2023-08-01T08:11:40;20.20;99.90
26262;DHT22;13988;52.446;13.280;2023-08-01T08:14:05;20.30;99.90
26262;DHT22;13988;52.446;13.280;2023-08-01T08:16:31;20.30;99.90
26262;DHT22;13988;52.446;13.280;2023-08-01T08:18:56;20.00;99.90
26262;DHT22;13988;52.446;13.280;2023-08-01T08:21:22;20.40;99.90
26262;DHT22;13988;52.446;13.280;2023-08-01T08:23:48;20.00;99.90
26262;DHT22;13988;52.446;13.280;2023-08-01T08:26:13;20.10;99.90
26262;DHT22;13988;52.446;13.280;2023-08-01T08:28:39;20.00;99.90
26262;DHT22;13988;52.446;13.280;2023-08-01T08:31:07;20.10;99.90
26262;DHT22;13988;52.446;13.280;2023-08-01T08:33:32;20.20;99.90
26262;DHT22;13988;52.446;13.280;2023-08-01T08:35:58;20.20;99.90
26262;DHT22;13988;52.446;13.280;2023-08-01T08:38:24;20.30;99.90
26262;DHT22;13988;52.446;13.280;2023-08-01T08:41:11;20.30;99.90
26262;DHT22;13988;52.446;13.280;2023-08-01T08:43:39;20.40;99.90
26262;DHT22;13988;52.446;13.280;2023-08-01T08:46:08;20.30;99.90
26262;DHT22;13988;52.446;13.280;2023-08-01T08:48:35;20.30;99.90
26262;DHT22;13988;52.446;13.280;2023-08-01T08:51:03;20.30;99.90
26262;DHT22;13988;52.446;13.280;2023-08-01T08:53:31;20.40;99.90
26262;DHT22;13988;52.446;13.280;2023-08-01T08:55:59;20.40;99.90
26262;DHT22;13988;52.446;13.280;2023-08-01T08:58:25;20.40;99.90
26262;DHT22;13988;52.446;13.280;2023-08-01T09:00:51;20.40;99.90
26262;DHT22;13988;52.446;13.280;2023-08-01T09:03:17;20.40;99.90
26262;DHT22;13988;52.446;13.280;2023-08-01T09:05:54;20.60;99.90
26262;DHT22;13988;52.446;13.280;2023-08-01T09:08:28;20.80;99.90
26262;DHT22;13988;52.446;13.280;2023-08-01T09:10:55;21.10;99.90
26262;DHT22;13988;52.446;13.280;2023-08-01T09:13:21;21.00;99.90
26262;DHT22;13988;52.446;13.280;2023-08-01T09:15:47;20.90;99.90
26262;DHT22;13988;52.446;13.280;2023-08-01T09:18:13;21.10;99.90
26262;DHT22;13988;52.446;13.280;2023-08-01T09:20:46;21.10;99.90
26262;DHT22;13988;52.446;13.280;2023-08-01T09:23:13;21.20;99.90
26262;DHT22;13988;52.446;13.280;2023-08-01T09:25:39;21.00;99.90
26262;DHT22;13988;52.446;13.280;2023-08-01T09:28:24;20.80;99.90
26262;DHT22;13988;52.446;13.280;2023-08-01T09:30:52;20.40;99.90
26262;DHT22;13988;52.446;13.280;2023-08-01T09:33:19;20.30;99.90
26262;DHT22;13988;52.446;13.280;2023-08-01T09:35:45;20.20;99.90
26262;DHT22;13988;52.446;13.280;2023-08-01T09:38:14;20.00;99.90
26262;DHT22;13988;52.446;13.280;2023-08-01T09:40:41;19.90;99.90
26262;DHT22;13988;52.446;13.280;2023-08-01T09:43:08;19.90;99.90
26262;DHT22;13988;52.446;13.280;2023-08-01T09:45:33;20.10;99.90
26262;DHT22;13988;52.446;13.280;2023-08-01T09:48:02;20.30;99.90
26262;DHT22;13988;52.446;13.280;2023-08-01T09:50:28;20.50;99.90
26262;DHT22;13988;52.446;13.280;2023-08-01T09:52:53;20.70;99.90
26262;DHT22;13988;52.446;13.280;2023-08-01T09:55:39;20.80;99.90
26262;DHT22;13988;52.446;13.280;2023-08-01T09:58:05;20.60;99.90
26262;DHT22;13988;52.446;13.280;2023-08-01T10:00:33;20.40;99.90
26262;DHT22;13988;52.446;13.280;2023-08-01T10:02:59;20.30;99.90
26262;DHT22;13988;52.446;13.280;2023-08-01T10:05:31;20.20;99.90
26262;DHT22;13988;52.446;13.280;2023-08-01T10:08:02;20.10;99.90
26262;DHT22;13988;52.446;13.280;2023-08-01T10:10:28;20.00;99.90
26262;DHT22;13988;52.446;13.280;2023-08-01T10:12:57;20.00;99.90
26262;DHT22;13988;52.446;13.280;2023-08-01T10:15:27;19.90;99.90
26262;DHT22;13988;52.446;13.280;2023-08-01T10:17:53;19.90;99.90
26262;DHT22;13988;52.446;13.280;2023-08-01T10:20:20;20.00;99.90
26262;DHT22;13988;52.446;13.280;2023-08-01T10:22:49;20.00;99.90
26262;DHT22;13988;52.446;13.280;2023-08-01T10:25:16;20.00;99.90
26262;DHT22;13988;52.446;13.280;2023-08-01T10:27:42;20.00;99.90
26262;DHT22;13988;52.446;13.280;2023-08-01T10:30:08;20.00;99.90
26262;DHT22;13988;52.446;13.280;2023-08-01T10:32:40;19.90;99.90
26262;DHT22;13988;52.446;13.280;2023-08-01T10:35:07;19.70;99.90
26262;DHT22;13988;52.446;13.280;2023-08-01T10:37:42;19.60;99.90
26262;DHT22;13988;52.446;13.280;2023-08-01T10:40:09;19.30;99.90
26262;DHT22;13988;52.446;13.280;2023-08-01T10:42:45;18.90;99.90
26262;DHT22;13988;52.446;13.280;2023-08-01T10:45:22;18.70;99.90
26262;DHT22;13988;52.446;13.280;2023-08-01T10:47:51;18.30;99.90
26262;DHT22;13988;52.446;13.280;2023-08-01T10:50:18;18.30;99.90
26262;DHT22;13988;52.446;13.280;2023-08-01T10:52:44;18.10;99.90
26262;DHT22;13988;52.446;13.280;2023-08-01T10:55:10;18.30;99.90
26262;DHT22;13988;52.446;13.280;2023-08-01T10:57:39;18.20;99.90
26262;DHT22;13988;52.446;13.280;2023-08-01T11:00:06;18.30;99.90
26262;DHT22;13988;52.446;13.280;2023-08-01T11:02:35;18.10;99.90
26262;DHT22;13988;52.446;13.280;2023-08-01T11:05:03;18.00;99.90
26262;DHT22;13988;52.446;13.280;2023-08-01T11:07:30;18.10;99.90
26262;DHT22;13988;52.446;13.280;2023-08-01T11:10:12;17.90;99.90
26262;DHT22;13988;52.446;13.280;2023-08-01T11:12:40;17.90;99.90
26262;DHT22;13988;52.446;13.280;2023-08-01T11:15:08;18.00;99.90
26262;DHT22;13988;52.446;13.280;2023-08-01T11:17:38;17.90;99.90
26262;DHT22;13988;52.446;13.280;2023-08-01T11:20:04;18.10;99.90
26262;DHT22;13988;52.446;13.280;2023-08-01T11:22:31;17.90;99.90
26262;DHT22;13988;52.446;13.280;2023-08-01T11:24:57;18.00;99.90
26262;DHT22;13988;52.446;13.280;2023-08-01T11:27:24;17.90;99.90
26262;DHT22;13988;52.446;13.280;2023-08-01T11:29:50;18.00;99.90
26262;DHT22;13988;52.446;13.280;2023-08-01T11:32:15;18.10;99.90
26262;DHT22;13988;52.446;13.280;2023-08-01T11:34:41;18.40;99.90
26262;DHT22;13988;52.446;13.280;2023-08-01T11:37:10;18.60;99.90
26262;DHT22;13988;52.446;13.280;2023-08-01T11:39:36;18.40;99.90
26262;DHT22;13988;52.446;13.280;2023-08-01T11:42:23;18.40;99.90
26262;DHT22;13988;52.446;13.280;2023-08-01T11:44:49;18.50;99.90
26262;DHT22;13988;52.446;13.280;2023-08-01T11:47:16;18.60;99.90
26262;DHT22;13988;52.446;13.280;2023-08-01T11:49:49;18.40;99.90
26262;DHT22;13988;52.446;13.280;2023-08-01T11:52:25;18.40;99.90
26262;DHT22;13988;52.446;13.280;2023-08-01T11:54:51;18.30;99.90
26262;DHT22;13988;52.446;13.280;2023-08-01T11:57:17;18.70;99.90
26262;DHT22;13988;52.446;13.280;2023-08-01T11:59:51;19.10;99.90
26262;DHT22;13988;52.446;13.280;2023-08-01T12:02:24;19.50;99.90
26262;DHT22;13988;52.446;13.280;2023-08-01T12:04:50;19.50;99.90
26262;DHT22;13988;52.446;13.280;2023-08-01T12:07:17;19.90;99.90
26262;DHT22;13988;52.446;13.280;2023-08-01T12:09:43;19.90;99.90
26262;DHT22;13988;52.446;13.280;2023-08-01T12:12:09;19.90;99.90
26262;DHT22;13988;52.446;13.280;2023-08-01T12:14:41;20.20;99.90
26262;DHT22;13988;52.446;13.280;2023-08-01T12:17:07;20.10;99.90
26262;DHT22;13988;52.446;13.280;2023-08-01T12:19:32;19.90;99.90
26262;DHT22;13988;52.446;13.280;2023-08-01T12:21:59;19.60;99.90
26262;DHT22;13988;52.446;13.280;2023-08-01T12:24:25;19.50;99.90
26262;DHT22;13988;52.446;13.280;2023-08-01T12:26:51;19.70;99.90
26262;DHT22;13988;52.446;13.280;2023-08-01T12:29:16;20.60;99.90
26262;DHT22;13988;52.446;13.280;2023-08-01T12:31:42;20.80;99.90
26262;DHT22;13988;52.446;13.280;2023-08-01T12:34:08;21.00;99.90
26262;DHT22;13988;52.446;13.280;2023-08-01T12:36:33;21.20;99.90
26262;DHT22;13988;52.446;13.280;2023-08-01T12:38:59;21.30;99.90
26262;DHT22;13988;52.446;13.280;2023-08-01T12:41:25;21.20;99.90
26262;DHT22;13988;52.446;13.280;2023-08-01T12:43:50;20.80;99.90
26262;DHT22;13988;52.446;13.280;2023-08-01T12:46:16;20.50;99.90
26262;DHT22;13988;52.446;13.280;2023-08-01T12:48:42;20.40;99.90
26262;DHT22;13988;52.446;13.280;2023-08-01T12:51:08;20.10;99.90
26262;DHT22;13988;52.446;13.280;2023-08-01T12:53:34;20.00;99.90
26262;DHT22;13988;52.446;13.280;2023-08-01T12:55:59;20.10;99.90
26262;DHT22;13988;52.446;13.280;2023-08-01T12:58:25;20.20;99.90
26262;DHT22;13988;52.446;13.280;2023-08-01T13:00:50;20.60;99.90
26262;DHT22;13988;52.446;13.280;2023-08-01T13:03:16;20.40;99.90
26262;DHT22;13988;52.446;13.280;2023-08-01T13:05:42;20.60;99.90
26262;DHT22;13988;52.446;13.280;2023-08-01T13:08:09;20.80;99.90
26262;DHT22;13988;52.446;13.280;2023-08-01T13:10:36;21.20;99.90
26262;DHT22;13988;52.446;13.280;2023-08-01T13:13:02;21.70;99.90
26262;DHT22;13988;52.446;13.280;2023-08-01T13:15:29;22.20;99.90
26262;DHT22;13988;52.446;13.280;2023-08-01T13:17:55;22.20;99.90
26262;DHT22;13988;52.446;13.280;2023-08-01T13:20:20;22.70;99.90
26262;DHT22;13988;52.446;13.280;2023-08-01T13:22:48;22.90;99.90
26262;DHT22;13988;52.446;13.280;2023-08-01T13:25:14;22.90;99.90
26262;DHT22;13988;52.446;13.280;2023-08-01T13:27:40;22.70;99.90
26262;DHT22;13988;52.446;13.280;2023-08-01T13:30:06;22.40;99.90
26262;DHT22;13988;52.446;13.280;2023-08-01T13:32:33;22.10;99.90
26262;DHT22;13988;52.446;13.280;2023-08-01T13:34:59;22.10;99.90
26262;DHT22;13988;52.446;13.280;2023-08-01T13:37:25;22.30;99.90
26262;DHT22;13988;52.446;13.280;2023-08-01T13:39:50;22.90;99.90
26262;DHT22;13988;52.446;13.280;2023-08-01T13:42:16;22.90;99.90
26262;DHT22;13988;52.446;13.280;2023-08-01T13:44:41;22.50;99.90
26262;DHT22;13988;52.446;13.280;2023-08-01T13:47:07;22.20;99.90
26262;DHT22;13988;52.446;13.280;2023-08-01T13:49:33;22.00;99.90
26262;DHT22;13988;52.446;13.280;2023-08-01T13:51:59;22.50;99.90
26262;DHT22;13988;52.446;13.280;2023-08-01T13:54:25;22.40;99.90
26262;DHT22;13988;52.446;13.280;2023-08-01T13:56:51;22.10;99.90
26262;DHT22;13988;52.446;13.280;2023-08-01T13:59:19;22.20;99.90
26262;DHT22;13988;52.446;13.280;2023-08-01T14:01:45;22.10;99.90
26262;DHT22;13988;52.446;13.280;2023-08-01T14:04:11;22.00;99.90
26262;DHT22;13988;52.446;13.280;2023-08-01T14:06:40;21.80;99.90
26262;DHT22;13988;52.446;13.280;2023-08-01T14:09:09;22.20;99.90
26262;DHT22;13988;52.446;13.280;2023-08-01T14:11:36;22.60;99.90
26262;DHT22;13988;52.446;13.280;2023-08-01T14:14:01;22.90;99.90
26262;DHT22;13988;52.446;13.280;2023-08-01T14:16:28;22.80;99.90
26262;DHT22;13988;52.446;13.280;2023-08-01T14:18:54;22.40;99.90
26262;DHT22;13988;52.446;13.280;2023-08-01T14:21:19;22.10;99.90
26262;DHT22;13988;52.446;13.280;2023-08-01T14:23:45;21.50;99.90
26262;DHT22;13988;52.446;13.280;2023-08-01T14:26:11;21.40;99.90
26262;DHT22;13988;52.446;13.280;2023-08-01T14:28:36;21.60;99.90
26262;DHT22;13988;52.446;13.280;2023-08-01T14:31:03;21.60;99.90
26262;DHT22;13988;52.446;13.280;2023-08-01T14:33:29;22.00;99.90
26262;DHT22;13988;52.446;13.280;2023-08-01T14:35:55;22.50;99.90
26262;DHT22;13988;52.446;13.280;2023-08-01T14:38:21;22.70;99.90
26262;DHT22;13988;52.446;13.280;2023-08-01T14:40:46;22.80;99.90
26262;DHT22;13988;52.446;13.280;2023-08-01T14:43:12;22.90;99.90
26262;DHT22;13988;52.446;13.280;2023-08-01T14:45:39;22.90;99.90
26262;DHT22;13988;52.446;13.280;2023-08-01T14:48:05;22.80;99.90
26262;DHT22;13988;52.446;13.280;2023-08-01T14:50:31;22.70;99.90
26262;DHT22;13988;52.446;13.280;2023-08-01T14:52:56;22.30;99.90
26262;DHT22;13988;52.446;13.280;2023-08-01T14:55:22;22.20;99.90
26262;DHT22;13988;52.446;13.280;2023-08-01T14:57:48;22.00;99.90
26262;DHT22;13988;52.446;13.280;2023-08-01T15:00:15;21.90;99.90
26262;DHT22;13988;52.446;13.280;2023-08-01T15:02:41;21.90;99.90
26262;DHT22;13988;52.446;13.280;2023-08-01T15:05:07;21.90;99.90
26262;DHT22;13988;52.446;13.280;2023-08-01T15:07:32;21.80;99.90
26262;DHT22;13988;52.446;13.280;2023-08-01T15:09:58;21.60;99.90